Time;durP1;ratioP1;P1;durP2;ratioP2;P2;SDS_P1;SDS_P2;PMS_P1;PMS_P2;Temp;Humidity;BMP_temperature;BMP_pressure;BME280_temperature;BME280_humidity;BME280_pressure;Samples;Min_cycle;Max_cycle;Signal;HPM_P1;HPM_P2
2023/04/26 04:05:29;;;;;;;4.15;2.92;;;5.40;99.90;;;;;;5335649;23;20240;-68
2023/04/26 04:07:55;;;;;;;2.13;2.00;;;5.30;99.90;;;;;;4957107;28;20263;-67
2023/04/26 04:10:22;;;;;;;2.30;1.63;;;5.30;99.90;;;;;;4974564;28;20184;-67
2023/04/26 04:12:48;;;;;;;2.25;2.05;;;5.20;99.90;;;;;;4974354;28;20436;-67
2023/04/26 04:15:16;;;;;;;3.50;2.50;;;5.20;99.90;;;;;;4961680;28;20240;-67
2023/04/26 04:17:41;;;;;;;4.65;3.15;;;5.20;99.90;;;;;;4955197;29;20697;-68
2023/04/26 04:20:08;;;;;;;2.27;2.07;;;5.10;99.90;;;;;;4955148;29;20194;-68
2023/04/26 04:22:33;;;;;;;3.28;3.08;;;5.10;99.90;;;;;;4955089;29;20166;-68
2023/04/26 04:24:59;;;;;;;2.03;1.93;;;5.10;99.90;;;;;;4954653;28;20263;-68
2023/04/26 04:27:25;;;;;;;3.03;2.83;;;5.10;99.90;;;;;;4955181;29;20165;-68
2023/04/26 04:29:52;;;;;;;3.95;3.65;;;5.10;99.90;;;;;;4955072;29;20235;-68
2023/04/26 04:32:18;;;;;;;3.88;2.83;;;5.00;99.90;;;;;;4955026;29;20174;-68
2023/04/26 04:34:44;;;;;;;5.18;2.70;;;5.00;99.90;;;;;;4953763;28;20207;-69
2023/04/26 04:37:10;;;;;;;2.07;1.97;;;5.10;99.90;;;;;;4955078;29;20178;-67
2023/04/26 04:39:36;;;;;;;2.72;2.53;;;5.20;99.90;;;;;;4954818;29;20455;-69
2023/04/26 04:42:02;;;;;;;9.80;3.03;;;5.20;99.90;;;;;;4954872;29;20177;-66
2023/04/26 04:44:27;;;;;;;4.07;3.67;;;5.30;99.90;;;;;;4954629;28;20917;-66
2023/04/26 04:46:53;;;;;;;5.53;5.03;;;5.40;99.90;;;;;;4954634;29;20174;-66
2023/04/26 04:49:19;;;;;;;6.73;4.40;;;5.50;99.90;;;;;;4954805;29;20180;-67
2023/04/26 04:51:44;;;;;;;3.50;3.27;;;5.60;99.90;;;;;;4954679;29;20174;-66
2023/04/26 04:54:13;;;;;;;3.37;3.10;;;5.80;99.90;;;;;;4954280;28;20218;-66
2023/04/26 04:56:39;;;;;;;5.95;2.85;;;6.10;99.90;;;;;;4954591;29;20569;-66
2023/04/26 04:59:05;;;;;;;11.93;6.20;;;6.40;99.90;;;;;;4953939;29;20172;-68
2023/04/26 05:01:35;;;;;;;3.15;2.35;;;6.80;99.90;;;;;;4954276;29;20201;-68
2023/04/26 05:04:00;;;;;;;4.15;3.75;;;7.30;99.90;;;;;;4954196;28;20224;-67
2023/04/26 05:06:27;;;;;;;3.67;3.33;;;7.70;99.90;;;;;;4954417;29;20189;-67
2023/04/26 05:08:53;;;;;;;6.55;4.03;;;8.00;99.90;;;;;;4954704;29;20180;-68
2023/04/26 05:11:19;;;;;;;2.65;2.47;;;8.30;99.90;;;;;;4956423;28;20260;-67
2023/04/26 05:13:45;;;;;;;7.13;3.63;;;8.40;99.90;;;;;;4957504;28;20267;-67
2023/04/26 05:16:11;;;;;;;4.07;3.28;;;8.50;99.90;;;;;;4958033;29;20181;-68
2023/04/26 05:18:37;;;;;;;4.10;3.23;;;8.50;99.90;;;;;;4958094;29;20199;-68
2023/04/26 05:21:03;;;;;;;4.20;3.50;;;8.40;99.90;;;;;;4957783;29;20195;-68
2023/04/26 05:23:29;;;;;;;5.07;2.83;;;8.40;99.90;;;;;;4957394;29;20907;-67
2023/04/26 05:25:55;;;;;;;2.97;2.67;;;8.40;99.90;;;;;;4957624;28;20443;-66
2023/04/26 05:28:20;;;;;;;15.43;4.10;;;8.50;99.90;;;;;;4957689;29;20330;-68
2023/04/26 05:30:46;;;;;;;5.33;3.30;;;8.60;99.90;;;;;;4940202;29;20182;-68
2023/04/26 05:33:12;;;;;;;2.47;2.27;;;8.70;99.90;;;;;;4940148;29;20180;-69
2023/04/26 05:35:38;;;;;;;2.83;2.63;;;8.80;99.90;;;;;;4957608;28;20198;-69
2023/04/26 05:38:03;;;;;;;3.83;3.00;;;8.90;99.90;;;;;;4957566;29;20413;-69
2023/04/26 05:40:30;;;;;;;3.57;3.13;;;9.20;99.90;;;;;;4940162;29;20210;-70
2023/04/26 05:42:56;;;;;;;3.33;3.00;;;9.50;99.90;;;;;;4957270;29;20165;-69
2023/04/26 05:45:21;;;;;;;3.40;3.10;;;9.90;99.90;;;;;;4957051;28;20721;-70
2023/04/26 05:47:47;;;;;;;4.30;2.77;;;10.20;99.90;;;;;;4957492;29;20521;-69
2023/04/26 05:50:13;;;;;;;3.87;3.13;;;10.50;99.90;;;;;;4957297;29;20175;-68
2023/04/26 05:52:38;;;;;;;4.50;3.90;;;10.80;99.90;;;;;;4957228;29;20641;-68
2023/04/26 05:55:05;;;;;;;4.40;3.50;;;11.00;99.90;;;;;;4956993;28;20246;-68
2023/04/26 05:57:31;;;;;;;5.60;4.53;;;11.30;99.90;;;;;;4957017;29;20208;-70
2023/04/26 05:59:57;;;;;;;5.07;4.47;;;11.60;99.90;;;;;;4957280;29;20498;-68
2023/04/26 06:02:22;;;;;;;4.80;4.30;;;11.80;99.90;;;;;;4957200;29;20650;-68
2023/04/26 06:04:48;;;;;;;6.13;4.20;;;11.90;99.90;;;;;;4956387;28;20196;-68
2023/04/26 06:07:15;;;;;;;6.03;5.10;;;11.70;99.90;;;;;;4956889;28;20181;-69
2023/04/26 06:09:41;;;;;;;4.93;4.10;;;11.60;99.90;;;;;;4956927;29;20423;-68
2023/04/26 06:12:06;;;;;;;4.03;3.37;;;11.40;99.90;;;;;;4956999;29;20467;-68
2023/04/26 06:14:32;;;;;;;4.27;3.87;;;11.30;99.90;;;;;;4956504;28;20606;-68
2023/04/26 06:16:58;;;;;;;5.90;4.20;;;11.40;99.90;;;;;;4957063;29;20252;-69
2023/04/26 06:19:23;;;;;;;4.40;4.00;;;11.60;99.90;;;;;;4956721;29;20176;-69
2023/04/26 06:21:50;;;;;;;3.43;3.23;;;12.00;99.90;;;;;;4938660;29;20177;-68
2023/04/26 06:24:16;;;;;;;3.50;3.20;;;12.50;99.90;;;;;;4956077;28;20547;-68
2023/04/26 06:26:42;;;;;;;4.33;3.83;;;13.00;99.90;;;;;;4939249;29;20410;-68
2023/04/26 06:29:07;;;;;;;3.47;3.17;;;13.20;99.90;;;;;;4956776;29;20639;-68
2023/04/26 06:31:33;;;;;;;4.10;3.70;;;12.80;99.90;;;;;;4956590;29;20180;-69
2023/04/26 06:33:58;;;;;;;6.67;4.73;;;12.50;99.90;;;;;;4955859;28;20178;-69
2023/04/26 06:36:26;;;;;;;5.27;3.77;;;12.30;99.90;;;;;;4956409;29;20536;-69
2023/04/26 06:38:52;;;;;;;3.83;3.50;;;12.30;99.90;;;;;;4956361;29;20169;-68
2023/04/26 06:41:18;;;;;;;3.63;3.33;;;12.20;99.90;;;;;;4956289;29;20956;-68
2023/04/26 06:43:43;;;;;;;2.80;2.60;;;12.10;99.90;;;;;;4955887;28;20225;-68
2023/04/26 06:46:09;;;;;;;4.43;3.10;;;12.00;99.90;;;;;;4939014;29;20583;-69
2023/04/26 06:48:34;;;;;;;3.27;2.90;;;11.90;99.90;;;;;;4956319;29;20204;-69
2023/04/26 06:51:07;;;;;;;2.93;2.70;;;11.70;99.90;;;;;;4956515;29;20663;-69
2023/04/26 06:53:34;;;;;;;5.17;4.40;;;11.80;99.90;;;;;;4955610;29;20293;-69
2023/04/26 06:56:00;;;;;;;3.10;2.90;;;11.80;99.90;;;;;;4956118;28;20432;-68
2023/04/26 06:58:26;;;;;;;3.10;2.80;;;11.80;99.90;;;;;;4955976;29;20423;-68
2023/04/26 07:00:51;;;;;;;2.73;2.53;;;12.00;99.90;;;;;;4956090;29;20554;-68
2023/04/26 07:03:17;;;;;;;1.93;1.77;;;12.20;99.90;;;;;;4938322;29;20183;-68
2023/04/26 07:05:42;;;;;;;1.77;1.67;;;12.20;98.60;;;;;;4955704;28;20544;-68
2023/04/26 07:08:08;;;;;;;2.10;2.00;;;12.50;97.10;;;;;;4955852;29;20204;-68
2023/04/26 07:10:34;;;;;;;3.73;2.07;;;12.40;98.10;;;;;;4955761;29;20200;-68
2023/04/26 07:13:00;;;;;;;2.10;1.90;;;12.80;98.50;;;;;;4955675;29;20257;-68
2023/04/26 07:15:25;;;;;;;1.63;1.53;;;12.90;95.70;;;;;;4955530;28;20476;-68
2023/04/26 07:17:51;;;;;;;1.70;1.60;;;13.30;96.40;;;;;;4955573;29;20818;-68
2023/04/26 07:20:18;;;;;;;2.33;2.13;;;13.60;94.30;;;;;;4955538;29;20208;-68
2023/04/26 07:22:44;;;;;;;3.27;1.77;;;13.80;93.90;;;;;;4938184;29;20198;-67
2023/04/26 07:25:10;;;;;;;3.10;2.40;;;14.10;93.30;;;;;;4955011;28;20636;-68
2023/04/26 07:27:36;;;;;;;3.87;3.33;;;14.30;93.00;;;;;;4938421;29;20985;-68
2023/04/26 07:30:02;;;;;;;4.00;2.47;;;14.70;93.80;;;;;;4955633;29;20916;-67
2023/04/26 07:32:27;;;;;;;2.83;2.63;;;15.40;92.90;;;;;;4955367;29;20654;-69
2023/04/26 07:34:53;;;;;;;5.17;2.53;;;16.00;93.30;;;;;;4937525;29;20903;-69
2023/04/26 07:37:19;;;;;;;2.90;2.47;;;16.80;92.70;;;;;;4963818;28;20298;-69
2023/04/26 07:39:44;;;;;;;4.10;2.90;;;17.50;90.50;;;;;;4973092;28;20211;-69
2023/04/26 07:42:10;;;;;;;2.67;2.43;;;17.90;91.10;;;;;;4974621;28;20245;-69
2023/04/26 07:44:35;;;;;;;3.13;2.80;;;19.00;91.20;;;;;;4957411;28;20704;-69
2023/04/26 07:47:01;;;;;;;2.53;2.33;;;20.30;85.10;;;;;;4955133;29;20169;-69
2023/04/26 07:49:27;;;;;;;3.33;2.70;;;20.70;77.10;;;;;;4955372;29;20606;-67
2023/04/26 07:51:53;;;;;;;2.33;2.20;;;21.20;77.90;;;;;;4955328;29;20196;-68
2023/04/26 07:54:19;;;;;;;2.57;2.37;;;21.60;77.40;;;;;;4954943;29;20279;-69
2023/04/26 07:56:45;;;;;;;3.07;2.00;;;22.10;75.60;;;;;;4955188;29;20431;-70
2023/04/26 07:59:10;;;;;;;2.40;1.80;;;21.80;69.60;;;;;;4952551;28;20266;-69
2023/04/26 08:01:36;;;;;;;2.83;2.63;;;21.00;65.30;;;;;;4957045;28;20352;-69
2023/04/26 08:04:03;;;;;;;2.73;2.53;;;19.90;70.00;;;;;;4974044;28;20196;-69
2023/04/26 08:06:29;;;;;;;1.97;1.80;;;19.00;73.30;;;;;;4974025;28;20283;-69
2023/04/26 08:08:54;;;;;;;2.00;1.90;;;18.30;76.10;;;;;;4974398;28;20805;-68
2023/04/26 08:11:20;;;;;;;2.73;2.53;;;18.10;81.20;;;;;;4964565;28;20184;-69
2023/04/26 08:13:46;;;;;;;2.47;2.33;;;17.80;82.30;;;;;;4954530;29;20180;-68
2023/04/26 08:16:11;;;;;;;1.93;1.83;;;18.00;83.00;;;;;;4937652;29;20424;-69
2023/04/26 08:18:37;;;;;;;6.17;2.83;;;18.00;80.80;;;;;;4955014;29;20185;-69
2023/04/26 08:21:03;;;;;;;3.53;2.80;;;17.50;79.10;;;;;;4954983;29;20208;-69
2023/04/26 08:23:33;;;;;;;2.67;2.10;;;17.40;81.30;;;;;;4937454;29;20326;-69
2023/04/26 08:25:59;;;;;;;2.13;2.03;;;17.80;82.50;;;;;;4954669;29;20197;-69
2023/04/26 08:28:24;;;;;;;2.03;1.93;;;18.80;81.80;;;;;;4937845;29;20419;-69
2023/04/26 08:30:50;;;;;;;3.50;2.50;;;19.70;77.30;;;;;;4937605;29;20220;-69
2023/04/26 08:33:17;;;;;;;3.03;2.40;;;20.50;81.20;;;;;;4954315;29;20196;-69
2023/04/26 08:35:43;;;;;;;2.27;2.07;;;21.10;72.20;;;;;;4973778;28;20206;-69
2023/04/26 08:38:08;;;;;;;2.60;2.40;;;21.10;74.00;;;;;;4974079;28;20481;-69
2023/04/26 08:40:35;;;;;;;3.50;2.10;;;20.80;77.60;;;;;;4974275;28;20279;-69
2023/04/26 08:43:01;;;;;;;2.73;2.53;;;20.60;72.50;;;;;;4973934;28;20173;-69
2023/04/26 08:45:26;;;;;;;2.93;2.47;;;20.10;71.90;;;;;;4974403;28;20816;-69
2023/04/26 08:47:55;;;;;;;3.33;3.03;;;19.20;74.90;;;;;;4960367;28;20533;-69
2023/04/26 08:50:22;;;;;;;2.20;2.10;;;18.50;76.20;;;;;;4977459;28;20195;-69
2023/04/26 08:52:50;;;;;;;1.83;1.73;;;18.60;77.20;;;;;;4960307;28;20418;-69
2023/04/26 08:55:17;;;;;;;2.00;1.90;;;18.60;77.40;;;;;;4977146;28;20435;-68
2023/04/26 08:57:47;;;;;;;2.40;2.20;;;18.30;76.60;;;;;;4977727;28;20387;-68
2023/04/26 09:00:14;;;;;;;2.23;2.03;;;17.80;76.90;;;;;;4977322;28;20454;-69
2023/04/26 09:02:44;;;;;;;2.80;2.50;;;17.10;77.00;;;;;;4962592;28;20395;-69
2023/04/26 09:05:10;;;;;;;2.60;2.30;;;16.70;79.60;;;;;;4957661;28;20473;-69
2023/04/26 09:07:46;;;;;;;2.37;1.90;;;16.50;77.10;;;;;;4958269;29;20408;-69
2023/04/26 09:10:18;;;;;;;3.73;2.80;;;16.30;79.00;;;;;;4957978;29;20419;-69
2023/04/26 09:12:44;;;;;;;1.80;1.70;;;16.50;80.00;;;;;;4957944;29;20403;-69
2023/04/26 09:15:10;;;;;;;2.97;2.67;;;16.60;78.80;;;;;;4957562;29;20406;-69
2023/04/26 09:17:38;;;;;;;2.23;2.03;;;17.10;80.00;;;;;;4957662;28;20181;-68
2023/04/26 09:20:24;;;;;;;2.33;2.13;;;17.10;76.30;;;;;;4957677;29;20509;-69
2023/04/26 09:22:52;;;;;;;2.00;1.90;;;16.90;77.00;;;;;;4957903;29;20482;-68
2023/04/26 09:25:29;;;;;;;1.93;1.77;;;16.90;75.80;;;;;;4957457;29;20515;-69
2023/04/26 09:27:55;;;;;;;1.53;1.43;;;16.80;76.60;;;;;;4957717;29;20379;-68
2023/04/26 09:30:21;;;;;;;2.23;2.00;;;16.60;79.60;;;;;;4973047;28;20450;-69
2023/04/26 09:33:05;;;;;;;2.87;1.77;;;16.50;81.20;;;;;;4974271;28;20177;-68
2023/04/26 09:35:34;;;;;;;1.70;1.60;;;16.30;79.10;;;;;;4940303;29;20743;-68
2023/04/26 09:38:07;;;;;;;2.27;2.17;;;16.10;78.90;;;;;;4957357;29;20436;-69
2023/04/26 09:40:35;;;;;;;2.07;1.97;;;15.90;81.40;;;;;;4957417;29;20468;-69
2023/04/26 09:43:02;;;;;;;1.80;1.70;;;15.80;82.30;;;;;;4957134;29;20413;-68
2023/04/26 09:45:29;;;;;;;2.73;1.90;;;15.80;80.40;;;;;;4957330;28;20448;-68
2023/04/26 09:48:25;;;;;;;2.30;1.97;;;15.80;78.50;;;;;;4957373;29;20412;-68
2023/04/26 09:50:53;;;;;;;2.20;2.07;;;16.30;85.40;;;;;;4940427;29;20446;-69
2023/04/26 09:53:41;;;;;;;2.30;2.10;;;17.30;80.60;;;;;;4957162;29;20426;-70
2023/04/26 09:56:12;;;;;;;2.03;1.90;;;17.90;76.10;;;;;;4957285;28;20421;-70
2023/04/26 09:58:39;;;;;;;2.43;2.23;;;18.40;77.80;;;;;;4957038;29;20455;-69
2023/04/26 10:01:07;;;;;;;2.20;2.10;;;18.60;79.20;;;;;;4957139;29;20456;-68
2023/04/26 10:03:36;;;;;;;1.83;1.70;;;18.70;76.00;;;;;;4956730;29;20770;-69
2023/04/26 10:06:02;;;;;;;1.60;1.50;;;18.80;77.10;;;;;;4956815;29;20885;-68
2023/04/26 10:08:30;;;;;;;1.60;1.50;;;18.70;76.10;;;;;;4957159;29;20483;-70
2023/04/26 10:10:56;;;;;;;2.83;1.80;;;18.70;78.20;;;;;;4956808;29;20436;-68
2023/04/26 10:13:21;;;;;;;2.10;2.00;;;18.70;75.90;;;;;;4956552;29;20399;-68
2023/04/26 10:15:47;;;;;;;2.20;2.10;;;18.40;76.90;;;;;;4956973;29;20437;-68
2023/04/26 10:18:13;;;;;;;1.70;1.60;;;18.20;78.20;;;;;;4957103;29;20204;-68
2023/04/26 10:20:42;;;;;;;1.70;1.60;;;17.70;73.30;;;;;;4956928;29;20480;-67
2023/04/26 10:23:21;;;;;;;1.80;1.70;;;17.30;77.80;;;;;;4956302;29;20176;-68
2023/04/26 10:25:48;;;;;;;1.33;1.20;;;17.20;79.70;;;;;;4966287;28;20442;-70
2023/04/26 10:28:14;;;;;;;1.73;1.63;;;17.20;79.70;;;;;;4975476;28;20500;-68
2023/04/26 10:30:54;;;;;;;2.40;1.73;;;16.80;75.00;;;;;;4958716;28;20452;-68
2023/04/26 10:33:22;;;;;;;8.33;1.70;;;16.60;75.10;;;;;;4956393;29;20422;-68
2023/04/26 10:36:07;;;;;;;2.70;1.83;;;16.60;78.20;;;;;;4956639;29;20519;-68
2023/04/26 10:38:34;;;;;;;2.30;1.83;;;16.90;75.10;;;;;;4939374;29;20386;-69
2023/04/26 10:41:35;;;;;;;2.00;1.90;;;17.10;73.50;;;;;;4956284;28;20502;-68
2023/04/26 10:44:31;;;;;;;2.03;1.93;;;17.10;75.90;;;;;;4938517;29;20415;-69
2023/04/26 10:46:57;;;;;;;2.00;1.80;;;17.40;79.70;;;;;;4956220;29;20997;-69
2023/04/26 10:49:23;;;;;;;1.50;1.47;;;18.10;78.80;;;;;;4956242;29;20504;-69
2023/04/26 10:52:09;;;;;;;1.40;1.30;;;18.90;75.90;;;;;;4956179;29;20173;-69
2023/04/26 10:54:55;;;;;;;1.70;1.60;;;19.50;72.00;;;;;;4955290;29;20461;-68
2023/04/26 10:57:22;;;;;;;4.10;1.70;;;19.30;69.30;;;;;;4956031;29;20820;-67
2023/04/26 11:00:13;;;;;;;2.07;1.90;;;19.10;71.50;;;;;;4956093;28;20507;-70
2023/04/26 11:02:48;;;;;;;2.83;2.20;;;18.80;71.40;;;;;;4971272;28;20764;-69
2023/04/26 11:05:33;;;;;;;2.00;1.80;;;18.50;70.40;;;;;;4974470;28;20420;-68
2023/04/26 11:08:16;;;;;;;2.30;2.10;;;18.80;67.60;;;;;;4957435;28;20832;-70
2023/04/26 11:10:44;;;;;;;1.83;1.73;;;18.70;68.50;;;;;;4955590;29;20472;-65
2023/04/26 11:13:12;;;;;;;1.97;1.87;;;18.00;69.60;;;;;;4955554;29;20468;-68
2023/04/26 11:15:38;;;;;;;3.00;2.00;;;17.50;73.70;;;;;;4954755;28;20506;-68
2023/04/26 11:18:04;;;;;;;1.90;1.80;;;17.30;74.40;;;;;;4955261;29;20946;-68
2023/04/26 11:20:31;;;;;;;2.03;1.93;;;16.80;75.30;;;;;;4938545;29;20259;-67
2023/04/26 11:22:58;;;;;;;2.70;2.20;;;16.70;78.90;;;;;;4955794;28;20424;-67
2023/04/26 11:25:26;;;;;;;2.13;1.93;;;16.70;78.10;;;;;;4955769;29;20436;-67
2023/04/26 11:27:56;;;;;;;1.40;1.40;;;16.80;76.40;;;;;;4955930;29;20416;-69
2023/04/26 11:30:22;;;;;;;1.90;1.80;;;16.50;77.10;;;;;;4955630;29;20404;-70
2023/04/26 11:32:47;;;;;;;1.90;1.80;;;16.40;75.60;;;;;;4956218;29;20423;-70
2023/04/26 11:35:14;;;;;;;2.23;2.03;;;16.40;76.70;;;;;;4956101;29;20201;-71
2023/04/26 11:37:40;;;;;;;3.60;2.27;;;16.50;77.10;;;;;;4956502;28;20247;-69
2023/04/26 11:40:10;;;;;;;2.00;1.80;;;16.80;77.20;;;;;;4974016;28;21004;-67
2023/04/26 11:42:35;;;;;;;2.23;2.13;;;16.70;76.30;;;;;;4974602;28;20426;-67
2023/04/26 11:45:05;;;;;;;2.10;2.00;;;16.70;76.10;;;;;;4973906;28;20455;-67
2023/04/26 11:47:32;;;;;;;2.53;2.33;;;16.80;76.30;;;;;;4974602;28;20168;-67
2023/04/26 11:49:59;;;;;;;2.07;1.97;;;16.80;77.60;;;;;;4973595;28;20863;-66
2023/04/26 11:52:25;;;;;;;2.53;2.33;;;16.60;76.50;;;;;;4936534;29;20421;-66
2023/04/26 11:55:05;;;;;;;3.60;2.63;;;16.70;76.40;;;;;;4953962;29;20627;-65
2023/04/26 11:57:33;;;;;;;1.97;1.87;;;16.80;76.10;;;;;;4954891;29;20391;-66
2023/04/26 12:00:10;;;;;;;2.60;2.40;;;16.70;71.80;;;;;;4954683;29;20787;-67
2023/04/26 12:02:36;;;;;;;2.23;2.00;;;16.60;70.60;;;;;;4955097;29;20431;-67
2023/04/26 12:05:02;;;;;;;2.33;2.13;;;16.50;71.30;;;;;;4954369;29;20472;-67
2023/04/26 12:07:37;;;;;;;2.80;2.60;;;16.30;71.70;;;;;;4954948;29;20173;-67
2023/04/26 12:10:16;;;;;;;2.00;1.90;;;16.20;75.10;;;;;;4937824;29;20396;-67
2023/04/26 12:12:51;;;;;;;1.97;1.83;;;16.40;76.00;;;;;;4954588;29;20415;-69
2023/04/26 12:15:18;;;;;;;2.77;2.43;;;16.20;72.80;;;;;;4952060;29;20502;-67
2023/04/26 12:18:05;;;;;;;4.10;2.40;;;16.10;73.70;;;;;;4953001;29;20550;-67
2023/04/26 12:20:35;;;;;;;3.00;1.80;;;15.70;72.00;;;;;;4937937;29;20464;-68
2023/04/26 12:23:02;;;;;;;2.50;1.90;;;15.30;73.90;;;;;;4956434;29;20383;-68
2023/04/26 12:25:29;;;;;;;2.20;2.07;;;15.40;77.90;;;;;;4956582;29;20493;-68
2023/04/26 12:27:55;;;;;;;2.00;1.80;;;15.30;76.70;;;;;;4956720;28;20414;-66
2023/04/26 12:30:20;;;;;;;1.93;1.83;;;15.40;75.00;;;;;;4978112;28;20414;-66
2023/04/26 12:32:46;;;;;;;2.30;2.20;;;15.30;72.00;;;;;;4978305;28;20418;-67
2023/04/26 12:35:12;;;;;;;2.43;2.23;;;15.30;72.20;;;;;;4977347;28;20292;-67
2023/04/26 12:37:38;;;;;;;2.40;2.20;;;15.10;73.20;;;;;;4977844;28;20413;-67
2023/04/26 12:40:05;;;;;;;2.50;2.23;;;15.10;74.00;;;;;;4978306;28;20194;-66
2023/04/26 12:42:31;;;;;;;2.00;1.80;;;15.20;74.80;;;;;;4977687;28;20228;-67
2023/04/26 12:44:57;;;;;;;2.70;2.40;;;15.20;74.40;;;;;;4958863;28;20849;-68
2023/04/26 12:47:22;;;;;;;4.17;2.47;;;15.30;74.90;;;;;;4958407;29;20186;-67
2023/04/26 12:49:48;;;;;;;1.97;1.87;;;15.30;72.90;;;;;;4958674;29;20177;-68
2023/04/26 12:52:13;;;;;;;2.20;2.00;;;15.20;72.40;;;;;;4958446;29;20180;-67
2023/04/26 12:54:39;;;;;;;1.70;1.60;;;15.30;76.00;;;;;;4957922;29;20191;-67
2023/04/26 12:57:05;;;;;;;1.13;1.13;;;15.40;77.00;;;;;;4971026;28;20189;-67
2023/04/26 12:59:30;;;;;;;4.90;2.27;;;15.60;75.20;;;;;;4977410;28;20202;-67
2023/04/26 13:01:56;;;;;;;1.83;1.73;;;15.50;71.90;;;;;;4977944;28;20439;-67
2023/04/26 13:04:22;;;;;;;2.00;1.90;;;15.50;74.00;;;;;;4976459;28;20190;-67
2023/04/26 13:06:47;;;;;;;3.00;2.10;;;15.60;78.20;;;;;;4977498;28;20190;-67
2023/04/26 13:09:13;;;;;;;1.90;1.70;;;15.60;78.60;;;;;;4977636;28;20192;-68
2023/04/26 13:11:39;;;;;;;2.40;1.90;;;15.80;78.30;;;;;;4977675;28;20258;-67
2023/04/26 13:14:08;;;;;;;2.60;2.40;;;15.80;76.20;;;;;;4959571;28;20439;-67
2023/04/26 13:16:33;;;;;;;2.60;2.37;;;15.70;71.20;;;;;;4977245;28;20244;-67
2023/04/26 13:18:59;;;;;;;2.20;2.00;;;15.50;76.30;;;;;;4965037;28;20513;-67
2023/04/26 13:21:25;;;;;;;2.93;1.97;;;15.30;74.10;;;;;;4940757;29;20699;-67
2023/04/26 13:23:51;;;;;;;2.47;2.27;;;15.10;76.50;;;;;;4957315;29;20497;-67
2023/04/26 13:26:17;;;;;;;1.63;1.53;;;14.90;74.40;;;;;;4957926;29;20208;-67
2023/04/26 13:28:42;;;;;;;2.73;2.53;;;14.80;74.30;;;;;;4956891;29;20216;-67
2023/04/26 13:31:08;;;;;;;1.83;1.67;;;14.70;74.30;;;;;;4956413;28;20820;-67
2023/04/26 13:33:34;;;;;;;2.80;2.60;;;14.80;77.70;;;;;;4956576;29;20185;-67
2023/04/26 13:36:00;;;;;;;2.37;2.13;;;14.90;76.00;;;;;;4957424;29;20675;-67
2023/04/26 13:38:25;;;;;;;2.13;2.03;;;15.00;75.70;;;;;;4940276;29;20416;-67
2023/04/26 13:40:51;;;;;;;2.20;1.70;;;15.00;76.00;;;;;;4957329;29;20209;-67
2023/04/26 13:43:17;;;;;;;2.47;2.17;;;14.90;78.70;;;;;;4957343;29;20238;-67
2023/04/26 13:45:42;;;;;;;2.70;2.50;;;14.90;79.50;;;;;;4962598;28;20221;-67
2023/04/26 13:48:08;;;;;;;2.97;2.17;;;15.00;78.50;;;;;;4976857;28;20169;-66
2023/04/26 13:50:36;;;;;;;1.67;1.57;;;15.20;79.90;;;;;;4976818;28;20217;-67
2023/04/26 13:53:02;;;;;;;2.37;2.17;;;15.40;80.50;;;;;;4968058;28;20510;-68
2023/04/26 13:55:28;;;;;;;2.50;2.30;;;15.70;78.80;;;;;;4957262;28;20500;-67
2023/04/26 13:57:55;;;;;;;1.80;1.70;;;15.70;74.30;;;;;;4957237;29;20548;-67
2023/04/26 14:00:21;;;;;;;4.73;2.40;;;15.40;73.90;;;;;;4957134;29;20458;-68
2023/04/26 14:02:47;;;;;;;2.20;2.10;;;15.20;72.50;;;;;;4957113;29;20945;-68
2023/04/26 14:05:13;;;;;;;2.33;1.97;;;15.00;73.90;;;;;;4956499;28;20472;-67
2023/04/26 14:07:40;;;;;;;1.70;1.60;;;14.80;73.20;;;;;;4956930;29;20428;-68
2023/04/26 14:10:06;;;;;;;1.70;1.60;;;14.70;74.40;;;;;;4956878;28;20248;-67
2023/04/26 14:12:32;;;;;;;2.27;2.07;;;14.60;75.60;;;;;;4939740;29;20429;-66
2023/04/26 14:14:57;;;;;;;2.03;1.93;;;14.50;75.50;;;;;;4956348;29;20540;-68
2023/04/26 14:17:24;;;;;;;7.20;2.30;;;14.60;78.40;;;;;;4957152;29;20172;-66
2023/04/26 14:19:50;;;;;;;2.10;1.70;;;14.60;79.20;;;;;;4956675;29;20268;-67
2023/04/26 14:22:16;;;;;;;2.07;1.87;;;14.70;78.70;;;;;;4956330;29;20508;-66
2023/04/26 14:24:42;;;;;;;2.70;2.03;;;14.80;79.80;;;;;;4956008;28;20190;-67
2023/04/26 14:27:07;;;;;;;2.53;2.33;;;14.90;78.40;;;;;;4956490;29;20433;-67
2023/04/26 14:29:33;;;;;;;1.80;1.70;;;15.00;77.20;;;;;;4956506;29;20173;-67
2023/04/26 14:31:59;;;;;;;2.20;1.50;;;14.90;76.40;;;;;;4938553;29;20253;-66
2023/04/26 14:34:25;;;;;;;1.80;1.70;;;14.80;77.00;;;;;;4961238;28;20197;-67
2023/04/26 14:36:50;;;;;;;2.90;2.37;;;14.80;78.90;;;;;;4957684;28;20229;-67
2023/04/26 14:39:16;;;;;;;2.60;2.50;;;14.80;77.90;;;;;;4939343;29;20416;-67
2023/04/26 14:41:42;;;;;;;2.13;2.03;;;15.00;77.80;;;;;;4955616;29;20216;-67
2023/04/26 14:44:07;;;;;;;2.27;1.73;;;15.00;76.80;;;;;;4954762;28;20240;-67
2023/04/26 14:46:34;;;;;;;2.00;1.90;;;15.10;78.20;;;;;;4956017;29;20176;-67
2023/04/26 14:49:00;;;;;;;1.80;1.60;;;15.20;78.00;;;;;;4956259;28;20178;-67
2023/04/26 14:51:26;;;;;;;2.33;2.13;;;15.30;77.30;;;;;;4956052;29;20987;-67
2023/04/26 14:53:51;;;;;;;2.97;2.37;;;15.20;74.60;;;;;;4955870;29;20539;-68
2023/04/26 14:56:17;;;;;;;2.50;2.30;;;15.20;75.70;;;;;;4955661;29;20416;-67
2023/04/26 14:58:42;;;;;;;2.03;1.87;;;15.20;74.50;;;;;;4955954;29;20644;-67
2023/04/26 15:01:09;;;;;;;1.90;1.80;;;15.10;76.90;;;;;;4938638;29;20216;-66
2023/04/26 15:03:34;;;;;;;1.50;1.40;;;15.10;77.10;;;;;;4969059;28;20560;-66
2023/04/26 15:06:00;;;;;;;2.00;1.90;;;15.10;76.70;;;;;;4938244;29;20475;-66
2023/04/26 15:08:26;;;;;;;2.67;2.00;;;15.20;74.90;;;;;;4962128;28;20176;-68
2023/04/26 15:10:51;;;;;;;2.13;1.90;;;15.20;74.10;;;;;;4974982;28;20180;-66
2023/04/26 15:13:17;;;;;;;2.30;2.20;;;15.30;77.80;;;;;;4955069;29;20213;-66
2023/04/26 15:15:42;;;;;;;2.37;2.17;;;15.40;78.70;;;;;;4954467;28;20207;-66
2023/04/26 15:18:08;;;;;;;2.03;1.93;;;15.50;76.80;;;;;;4955904;29;20264;-67
2023/04/26 15:20:38;;;;;;;3.43;2.33;;;15.40;74.10;;;;;;4968006;28;20242;-67
2023/04/26 15:23:03;;;;;;;2.17;2.07;;;15.40;76.30;;;;;;4974688;28;20250;-66
2023/04/26 15:25:29;;;;;;;2.20;1.50;;;15.40;76.50;;;;;;4974935;28;20436;-66
2023/04/26 15:27:56;;;;;;;1.97;1.83;;;15.50;77.50;;;;;;4956012;28;20179;-67
2023/04/26 15:30:21;;;;;;;1.77;1.67;;;15.50;79.90;;;;;;4955715;29;20232;-67
2023/04/26 15:32:48;;;;;;;1.77;1.67;;;15.40;76.40;;;;;;4955909;29;20900;-70
2023/04/26 15:35:14;;;;;;;3.10;1.90;;;15.30;74.40;;;;;;4966807;28;20201;-68
2023/04/26 15:37:40;;;;;;;2.67;1.30;;;15.20;74.40;;;;;;4974752;28;20946;-68
2023/04/26 15:40:09;;;;;;;1.73;1.63;;;15.10;76.10;;;;;;4954943;28;20222;-67
2023/04/26 15:42:35;;;;;;;1.60;1.50;;;15.10;79.30;;;;;;4956321;28;20239;-67
2023/04/26 15:45:01;;;;;;;2.30;1.67;;;15.00;80.40;;;;;;4973685;28;20443;-68
2023/04/26 15:47:26;;;;;;;2.00;1.57;;;15.00;78.20;;;;;;4974754;28;20400;-65
2023/04/26 15:49:53;;;;;;;4.57;1.80;;;14.90;76.40;;;;;;4974878;28;20466;-67
2023/04/26 15:52:19;;;;;;;2.73;2.43;;;14.70;77.30;;;;;;4974788;28;20522;-67
2023/04/26 15:54:45;;;;;;;3.63;2.30;;;14.60;77.20;;;;;;4967047;28;20868;-67
2023/04/26 15:57:11;;;;;;;1.73;1.63;;;14.50;76.60;;;;;;4954724;28;20466;-67
2023/04/26 15:59:37;;;;;;;1.70;1.60;;;14.40;76.70;;;;;;4955395;29;20405;-69
2023/04/26 16:02:04;;;;;;;1.50;1.40;;;14.30;76.70;;;;;;4955427;29;20177;-68
2023/04/26 16:04:30;;;;;;;1.83;1.73;;;14.00;78.40;;;;;;4954904;29;20206;-67
2023/04/26 16:06:55;;;;;;;2.60;2.40;;;13.90;78.40;;;;;;4954770;29;20438;-67
2023/04/26 16:09:22;;;;;;;2.23;1.70;;;13.90;78.00;;;;;;4955636;29;20422;-67
2023/04/26 16:11:47;;;;;;;1.80;1.70;;;13.90;78.00;;;;;;4968144;28;20242;-66
2023/04/26 16:14:13;;;;;;;2.07;1.87;;;13.80;78.60;;;;;;4968830;28;20822;-67
2023/04/26 16:16:39;;;;;;;1.70;1.60;;;13.80;78.50;;;;;;4955213;29;20177;-66
2023/04/26 16:19:06;;;;;;;1.63;1.53;;;13.70;80.50;;;;;;4955200;29;20209;-67
2023/04/26 16:21:32;;;;;;;2.00;1.77;;;13.70;79.40;;;;;;4954339;29;20469;-66
2023/04/26 16:23:59;;;;;;;1.30;1.30;;;13.70;79.40;;;;;;4972447;28;20509;-66
2023/04/26 16:26:26;;;;;;;2.20;1.60;;;13.70;81.10;;;;;;4974289;28;20737;-67
2023/04/26 16:28:52;;;;;;;3.17;1.63;;;13.70;81.60;;;;;;4956845;28;20461;-67
2023/04/26 16:31:17;;;;;;;2.43;2.33;;;13.70;80.30;;;;;;4957742;28;20432;-67
2023/04/26 16:33:43;;;;;;;4.00;1.90;;;13.70;81.00;;;;;;4954519;28;20387;-66
2023/04/26 16:36:09;;;;;;;1.77;1.67;;;13.70;79.60;;;;;;4955054;29;20176;-68
2023/04/26 16:38:35;;;;;;;1.97;1.80;;;13.60;80.40;;;;;;4954900;28;20432;-68
2023/04/26 16:41:00;;;;;;;1.60;1.50;;;13.50;80.70;;;;;;4937604;29;20519;-68
2023/04/26 16:43:31;;;;;;;2.03;1.70;;;13.40;81.00;;;;;;4954473;29;20227;-66
2023/04/26 16:45:58;;;;;;;1.60;1.50;;;13.40;81.80;;;;;;4954641;29;20223;-69
2023/04/26 16:48:24;;;;;;;1.43;1.33;;;13.20;82.20;;;;;;4954866;29;20419;-67
2023/04/26 16:50:50;;;;;;;2.63;2.53;;;13.10;82.60;;;;;;4966593;28;20520;-66
2023/04/26 16:53:16;;;;;;;1.83;1.73;;;13.00;81.50;;;;;;4971802;28;20430;-67